Station info - map view · info · telemetry · weather · raw · status · beacons · messages · bulletins · browse · moving · my account
Callsign, ship name or locator: Clear       
It is possible to search using wildcards (*?) after a prefix. Example: OH*
APRS station IZ1DNG - show graphs
Map loading...
Comment: 13.9V
Location: 45°11.42' N 7°53.87' E - locator JN35WE75RQ - show map - static map
0.5 miles East bearing 83° from Chivasso, Provincia di Torino, Piedmont, Italy [?]
2.2 miles North bearing 11° from Castagneto Po, Provincia di Torino, Piedmont, Italy
13.2 miles Northeast bearing 51° from Torino, Provincia di Torino, Piedmont, Italy
65.5 miles West bearing 254° from Milan, Province of Milan, Lombardy, Italy
Last position: 2017-02-08 15:07:14 EST (11d 21h39m ago)
2017-02-08 21:07:14 CET local time at Chivasso, Italy [?]
Altitude: 603 ft
Course: 31°
Speed: 2 MPH
Last telemetry: 2017-02-08 14:55:22 EST (11d 21h51m ago) – show telemetry
Temp.: 227.004 C, Batt.: 13.718 Volt, -: 0, -: 0, -: 0
Device: Argent Data Systems: OpenTracker (tracker)
Last path: IZ1DNG>APOTC1 via IR1UFB,WIDE1,IR2UBX-11,IR2UGL-11,WIDE2*,qAR,IR2AO (good)
Positions stored: 5109
Stations near current position of IZ1DNG - show more
callsign distance last heard - EST      callsign distance last heard - EST
IU1DXU-10.9 miles 236°2017-02-19 05:14:06 IZ1LEH0.9 miles 236°2017-02-18 13:39:49
IZ1LEH-90.9 miles 236°2017-02-19 17:38:10 IU1DXU-71.6 miles 191°2017-02-19 11:27:47
IR1UFB-RP2.0 miles 179°2017-02-20 12:42:11 IR1UFB2.1 miles 197°2017-02-20 12:25:19
I1WTM-102.1 miles 185°2017-02-14 16:08:55 IZ1JZC-102.3 miles 197°2017-02-20 12:13:02
IW1FW-16.4 miles 290°2017-02-20 07:25:46 DW41287.6 miles 108°2017-02-20 12:43:53
IR1UCB B8.5 miles 156°2017-02-20 12:42:38 IR1UCB-B8.5 miles 156°2017-02-20 12:42:48
IK1GVQ9.1 miles 333°2017-02-20 12:45:19 IU1BPR-99.2 miles 266°2017-01-29 06:56:13
IZ1GCV-79.4 miles 332°2017-01-29 06:16:36 IK1XPP-79.6 miles 89°2017-02-08 07:10:00
IK1BQD-210.0 miles 234°2017-02-20 12:36:02 IZ1PAI-510.2 miles 242°2017-01-23 09:59:33
IZ1DSJ-110.4 miles 236°2017-02-20 12:45:05 IZ1DSJ-910.5 miles 244°2017-02-20 02:56:48
Stations which heard IZ1DNG directly on radio –
callsign pkts first heard - EST last heard longest (tx => rx) longest at - EST
IK2CHZ 2 2017-02-08 12:13:11 2017-02-08 12:19:04 JN45TP > JN45UI 20.1 miles 174° 2017-02-08 12:13:11
IR1AO 15 2017-02-08 13:17:04 2017-02-08 13:44:25 JN35VE > JN35XO 30.0 miles 14° 2017-02-08 13:44:25
IR3BT 7 2017-02-08 06:12:19 2017-02-08 11:35:08 JN55GK > JN56MD 53.7 miles 27° 2017-02-08 06:12:19
IR2UBX-11 13 2017-02-08 12:29:55 2017-02-08 13:07:33 JN45HL > JN45MQ 25.0 miles 51° 2017-02-08 13:07:33
IK3XTM 12 2017-02-08 06:13:09 2017-02-08 11:35:12 JN55KE > JN55LP 32.1 miles 9° 2017-02-08 06:43:24
IQ1IV 1 2017-02-08 13:37:32 2017-02-08 13:37:32 JN35XF > JN35WL 16.1 miles 344° 2017-02-08 13:37:32
IZ3LBC 3 2017-02-08 06:23:49 2017-02-08 11:30:09 JN55KF > JN55KL 15.9 miles 2° 2017-02-08 06:36:39
IR2BZ 16 2017-02-08 05:48:01 2017-02-08 06:09:29 JN55FK > JN45XO 26.0 miles 291° 2017-02-08 06:09:29
IW2HUZ-11 3 2017-02-08 13:01:54 2017-02-08 13:05:14 JN45HL > JN45MU 34.2 miles 35° 2017-02-08 13:05:14
IR1UFB 32 2017-02-03 10:38:58 2017-02-08 15:07:14 JN35UC > JN35WD 10.9 miles 69° 2017-02-08 14:31:26
IR1DM 1 2017-02-08 13:02:58 2017-02-08 13:02:58 JN45HL > JN44JS 49.8 miles 173° 2017-02-08 13:02:58
IR2S 20 2017-02-08 06:44:29 2017-02-08 14:48:29 JN35TB > JN55DQ 133.3 miles 71° 2017-02-08 14:10:49
IR2CV 12 2017-02-08 06:41:39 2017-02-08 11:46:05 JN55DL > JN55JC 37.7 miles 139° 2017-02-08 11:46:05
IR2BW 11 2017-02-08 05:45:58 2017-02-08 11:58:48 JN45XO > JN55DN 14.5 miles 94° 2017-02-08 11:58:48
IQ2LB-7 1 2017-02-08 12:40:57 2017-02-08 12:40:57 JN45NM > JN45NO 5.1 miles 8° 2017-02-08 12:40:57
IW5CBL-15 9 2017-02-08 06:28:44 2017-02-08 07:05:48 JN55KJ > JN54BH 83.0 miles 208° 2017-02-08 06:28:44
IZ3VIV-15 1 2017-02-08 06:30:14 2017-02-08 06:30:14 JN55LI > JN55PJ 17.9 miles 82° 2017-02-08 06:30:14
IR2UGL-11 11 2017-02-08 12:38:39 2017-02-08 14:34:11 JN35UC > JN46OA 98.7 miles 50° 2017-02-08 14:34:11
IQ1GP-2 49 2017-02-08 13:29:57 2017-02-08 14:50:05 JN35TB > JN35TK 23.5 miles 360° 2017-02-08 14:13:09
IR2UEZ 28 2017-02-08 12:43:20 2017-02-08 13:26:25 JN45BJ > JN45JP 34.9 miles 61° 2017-02-08 13:26:25

Only position packets which were originated by the station are shown here. The range statistics show some extra long hops, because some digipeaters do not correctly add themselves to the digipeater path. Please check the raw packets.
About this site
This page shows real-time information collected from the Automatic Position Reporting System Internet network (APRS-IS). APRS is used by amateur (ham) radio operators to transmit real-time position information, weather data, telemetry and messages over the radio. A vehicle equipped with a GPS receiver, a VHF transmitter or HF transceiver and a small computer device called a tracker transmits it's location, speed and course in a small data packet, which is then received by a nearby iGate receiving site which forwards the packet on the Internet. Systems connected to the Internet can send information on the APRS-IS without a radio transmitter, or collect and display information transmitted anywhere in the world.
FAQ · Blog · Discussion group · Linking to aprs.fi · AIS sites · Service status · Database statistics · Advertising on aprs.fi · Technical details · API · Change log · Planned changes · Credits and thanks · Terms Of Service · iPhone/iPad APRS